Time;durP1;ratioP1;P1;durP2;ratioP2;P2;SDS_P1;SDS_P2;PMS_P1;PMS_P2;Temp;Humidity;BMP_temperature;BMP_pressure;BME280_temperature;BME280_humidity;BME280_pressure;Samples;Min_cycle;Max_cycle;Signal;HPM_P1;HPM_P2
2021/09/20 00:19:17;;;;;;;6.72;3.60;;;;;;;;;;4150579;34;20474;-66
2021/09/20 00:21:43;;;;;;;6.82;5.35;;;;;;;;;;4138069;34;20467;-65
2021/09/20 00:24:09;;;;;;;6.55;3.70;;;;;;;;;;4150103;34;20542;-67
2021/09/20 00:26:35;;;;;;;5.80;3.60;;;;;;;;;;4150481;34;20478;-67
2021/09/20 00:29:01;;;;;;;6.72;4.10;;;;;;;;;;4137959;34;20119;-68
2021/09/20 00:31:27;;;;;;;7.07;3.58;;;;;;;;;;4126857;34;20119;-67
2021/09/20 00:33:53;;;;;;;6.15;4.22;;;;;;;;;;4150595;34;20119;-67
2021/09/20 00:36:23;;;;;;;4.97;3.85;;;;;;;;;;4150505;34;20127;-66
2021/09/20 00:38:54;;;;;;;6.72;4.47;;;;;;;;;;4150658;34;20115;-65
2021/09/20 00:41:22;;;;;;;5.12;4.00;;;;;;;;;;4138271;34;20133;-64
2021/09/20 00:43:49;;;;;;;9.98;4.22;;;;;;;;;;4150385;34;20220;-65
2021/09/20 00:46:19;;;;;;;5.35;4.28;;;;;;;;;;4150692;34;20191;-65
2021/09/20 00:48:45;;;;;;;7.25;4.30;;;;;;;;;;4137332;34;20223;-65
2021/09/20 00:51:11;;;;;;;5.53;4.40;;;;;;;;;;4150490;34;20527;-64
2021/09/20 00:53:36;;;;;;;8.20;4.80;;;;;;;;;;4150179;34;20119;-65
2021/09/20 00:56:02;;;;;;;5.07;4.10;;;;;;;;;;4150454;34;20222;-65
2021/09/20 00:58:28;;;;;;;9.82;4.55;;;;;;;;;;4137578;34;20095;-65
2021/09/20 01:01:12;;;;;;;5.53;4.00;;;;;;;;;;4137823;34;20111;-64
2021/09/20 01:04:06;;;;;;;6.62;4.10;;;;;;;;;;4211531;28;20115;-65
2021/09/20 01:06:37;;;;;;;5.95;4.07;;;;;;;;;;4150043;34;20126;-64
2021/09/20 01:09:07;;;;;;;6.30;4.10;;;;;;;;;;4148810;34;20125;-64
2021/09/20 01:11:32;;;;;;;7.57;4.45;;;;;;;;;;4148761;34;20127;-65
2021/09/20 01:13:58;;;;;;;8.27;4.20;;;;;;;;;;4137615;34;20126;-65
2021/09/20 01:16:24;;;;;;;5.32;4.18;;;;;;;;;;4149995;34;20123;-65
2021/09/20 01:18:50;;;;;;;6.65;5.00;;;;;;;;;;4150143;34;20134;-65
2021/09/20 01:21:17;;;;;;;10.82;4.47;;;;;;;;;;4149599;34;20115;-65
2021/09/20 01:23:48;;;;;;;7.05;4.40;;;;;;;;;;4148856;34;20231;-66
2021/09/20 01:26:15;;;;;;;7.72;4.97;;;;;;;;;;4147606;34;20682;-66
2021/09/20 01:28:41;;;;;;;6.22;4.53;;;;;;;;;;4136176;34;20122;-66
2021/09/20 01:31:11;;;;;;;11.55;4.43;;;;;;;;;;4149038;34;20111;-66
2021/09/20 01:33:46;;;;;;;9.35;4.50;;;;;;;;;;4148698;34;20123;-67
2021/09/20 01:36:12;;;;;;;6.68;4.60;;;;;;;;;;4125742;34;20743;-67
2021/09/20 01:38:38;;;;;;;5.32;3.80;;;;;;;;;;4148853;34;20126;-67
2021/09/20 01:41:03;;;;;;;7.32;4.30;;;;;;;;;;4148087;34;20111;-65
2021/09/20 01:43:30;;;;;;;8.60;3.97;;;;;;;;;;4148645;34;20107;-65
2021/09/20 01:45:56;;;;;;;6.60;4.80;;;;;;;;;;4150106;34;20095;-67
2021/09/20 01:48:22;;;;;;;5.82;4.25;;;;;;;;;;4149804;34;20198;-66
2021/09/20 01:50:48;;;;;;;6.37;4.32;;;;;;;;;;4148406;34;20207;-67
2021/09/20 01:53:14;;;;;;;6.70;4.35;;;;;;;;;;4137169;34;20541;-65
2021/09/20 01:55:40;;;;;;;5.25;3.90;;;;;;;;;;4149713;34;20513;-67
2021/09/20 01:58:06;;;;;;;6.62;4.18;;;;;;;;;;4149693;34;20221;-67
2021/09/20 02:00:32;;;;;;;5.32;4.03;;;;;;;;;;4149908;34;20096;-67
2021/09/20 02:02:58;;;;;;;5.50;4.05;;;;;;;;;;4148013;34;20535;-66
2021/09/20 02:05:24;;;;;;;4.72;3.90;;;;;;;;;;4149511;34;20122;-67
2021/09/20 02:07:50;;;;;;;8.45;4.30;;;;;;;;;;4148125;34;20141;-66
2021/09/20 02:10:16;;;;;;;9.18;3.90;;;;;;;;;;4149790;34;20115;-66
2021/09/20 02:12:42;;;;;;;7.60;3.78;;;;;;;;;;4149413;34;20134;-66
2021/09/20 02:15:08;;;;;;;10.77;4.22;;;;;;;;;;4149478;34;20560;-66
2021/09/20 02:17:35;;;;;;;6.80;3.60;;;;;;;;;;4149478;34;20139;-66
2021/09/20 02:20:01;;;;;;;139.35;83.37;;;;;;;;;;4149743;34;20215;-66
2021/09/20 02:22:27;;;;;;;11.40;3.65;;;;;;;;;;4148047;34;20147;-66
2021/09/20 02:24:53;;;;;;;7.32;3.53;;;;;;;;;;4149258;34;20126;-66
2021/09/20 02:27:19;;;;;;;7.30;3.92;;;;;;;;;;4149370;34;20622;-66
2021/09/20 02:29:45;;;;;;;4.72;3.40;;;;;;;;;;4148236;34;20119;-65
2021/09/20 02:32:11;;;;;;;6.53;4.10;;;;;;;;;;4149350;34;20329;-66
2021/09/20 02:34:37;;;;;;;5.90;4.03;;;;;;;;;;4149472;34;20123;-67
2021/09/20 02:37:03;;;;;;;9.07;5.50;;;;;;;;;;4148128;34;20107;-66
2021/09/20 02:39:29;;;;;;;6.93;3.60;;;;;;;;;;4147833;34;20095;-66
2021/09/20 02:41:55;;;;;;;7.53;3.70;;;;;;;;;;4149341;34;20095;-66
2021/09/20 02:44:20;;;;;;;7.57;4.03;;;;;;;;;;4149519;34;20133;-67
2021/09/20 02:46:48;;;;;;;10.02;4.22;;;;;;;;;;4147978;34;20143;-66
2021/09/20 02:49:14;;;;;;;10.90;3.85;;;;;;;;;;4149989;34;20219;-67
2021/09/20 02:51:41;;;;;;;6.97;3.85;;;;;;;;;;4150090;34;20146;-67
2021/09/20 02:54:09;;;;;;;6.32;4.00;;;;;;;;;;4150078;34;20134;-67
2021/09/20 02:59:23;;;;;;;7.82;3.90;;;;;;;;;;4165750;28;20232;-66
2021/09/20 03:01:49;;;;;;;10.63;5.07;;;;;;;;;;4138318;34;20202;-67
2021/09/20 03:04:15;;;;;;;16.48;6.78;;;;;;;;;;4141547;34;20136;-68
2021/09/20 03:06:41;;;;;;;14.87;5.93;;;;;;;;;;4137777;34;20139;-68
2021/09/20 03:09:07;;;;;;;9.25;6.43;;;;;;;;;;4137613;34;20468;-67
2021/09/20 03:11:33;;;;;;;16.05;7.05;;;;;;;;;;4147484;34;20520;-67
2021/09/20 03:14:00;;;;;;;13.88;7.80;;;;;;;;;;4137658;34;20213;-68
2021/09/20 03:16:25;;;;;;;10.45;6.50;;;;;;;;;;4137336;34;20557;-67
2021/09/20 03:18:52;;;;;;;14.32;6.50;;;;;;;;;;4147569;34;20098;-67
2021/09/20 03:21:19;;;;;;;14.27;6.32;;;;;;;;;;4137785;34;20127;-67
2021/09/20 03:23:46;;;;;;;13.75;5.72;;;;;;;;;;4125269;34;20108;-67
2021/09/20 03:26:12;;;;;;;11.02;5.40;;;;;;;;;;4137567;34;20098;-66
2021/09/20 03:28:38;;;;;;;14.15;7.47;;;;;;;;;;4147111;34;20157;-66
2021/09/20 03:31:04;;;;;;;11.57;5.22;;;;;;;;;;4137483;34;20119;-66
2021/09/20 03:33:30;;;;;;;13.43;4.95;;;;;;;;;;4137534;34;20102;-71
2021/09/20 03:35:56;;;;;;;13.85;4.72;;;;;;;;;;4147282;34;20134;-64
2021/09/20 03:38:22;;;;;;;12.07;5.18;;;;;;;;;;4137163;34;20130;-64
2021/09/20 03:40:48;;;;;;;15.13;5.50;;;;;;;;;;4137403;34;20133;-67
2021/09/20 03:43:16;;;;;;;11.35;5.00;;;;;;;;;;4137224;34;20127;-67
2021/09/20 03:45:42;;;;;;;11.95;4.93;;;;;;;;;;4147198;34;20655;-64
2021/09/20 03:48:08;;;;;;;12.57;5.00;;;;;;;;;;4146939;34;20154;-69
2021/09/20 03:50:34;;;;;;;12.52;5.22;;;;;;;;;;4137635;34;20138;-68
2021/09/20 03:53:00;;;;;;;9.50;4.95;;;;;;;;;;4137361;34;20119;-66
2021/09/20 03:55:27;;;;;;;13.70;4.50;;;;;;;;;;4137348;34;20137;-65
2021/09/20 03:57:53;;;;;;;8.13;4.93;;;;;;;;;;4136767;34;20146;-66
2021/09/20 04:00:19;;;;;;;8.98;4.68;;;;;;;;;;4135428;34;20118;-64
2021/09/20 04:02:46;;;;;;;11.40;4.57;;;;;;;;;;4135764;34;20131;-69
2021/09/20 04:05:12;;;;;;;15.10;4.80;;;;;;;;;;4125126;34;20437;-67
2021/09/20 04:07:39;;;;;;;18.77;5.18;;;;;;;;;;4135718;34;20103;-69
2021/09/20 04:10:06;;;;;;;17.48;4.62;;;;;;;;;;4135736;34;20207;-64
2021/09/20 04:12:36;;;;;;;13.80;4.80;;;;;;;;;;4158360;34;20172;-65
2021/09/20 04:15:04;;;;;;;10.85;5.95;;;;;;;;;;4137241;34;20573;-68
2021/09/20 04:17:30;;;;;;;14.23;5.60;;;;;;;;;;4135648;34;20111;-65
2021/09/20 04:19:56;;;;;;;19.70;5.65;;;;;;;;;;4135590;34;20111;-66
2021/09/20 04:22:22;;;;;;;17.92;5.72;;;;;;;;;;4137098;34;20116;-67
2021/09/20 04:24:48;;;;;;;7.53;5.22;;;;;;;;;;4136957;34;20115;-67
2021/09/20 04:27:14;;;;;;;11.50;4.25;;;;;;;;;;4151926;34;20563;-63
2021/09/20 04:29:41;;;;;;;12.32;4.18;;;;;;;;;;4131989;34;20115;-63
2021/09/20 04:32:07;;;;;;;11.95;4.43;;;;;;;;;;4136743;34;20099;-64
2021/09/20 04:34:34;;;;;;;17.70;4.75;;;;;;;;;;4135665;34;20523;-65
2021/09/20 04:37:00;;;;;;;11.35;4.82;;;;;;;;;;4146805;34;20212;-63
2021/09/20 04:39:26;;;;;;;16.17;4.32;;;;;;;;;;4135361;34;20103;-65
2021/09/20 04:41:52;;;;;;;16.60;5.20;;;;;;;;;;4136796;34;20135;-65
2021/09/20 04:44:18;;;;;;;11.57;4.12;;;;;;;;;;4136796;34;20111;-65
2021/09/20 04:46:44;;;;;;;17.95;5.60;;;;;;;;;;4146568;34;20142;-68
2021/09/20 04:49:10;;;;;;;10.13;5.70;;;;;;;;;;4135313;34;20119;-65
2021/09/20 04:51:36;;;;;;;15.70;6.05;;;;;;;;;;4135663;34;20166;-65
2021/09/20 04:54:02;;;;;;;14.73;5.85;;;;;;;;;;4135563;34;20127;-67
2021/09/20 04:56:29;;;;;;;10.75;5.10;;;;;;;;;;4136905;34;20123;-68
2021/09/20 04:58:55;;;;;;;15.40;6.40;;;;;;;;;;4136630;34;20123;-67
2021/09/20 05:01:21;;;;;;;15.90;5.97;;;;;;;;;;4136914;34;20115;-68
2021/09/20 05:03:47;;;;;;;19.23;5.75;;;;;;;;;;4135203;34;20132;-64
2021/09/20 05:06:13;;;;;;;16.40;5.93;;;;;;;;;;4135550;34;20126;-68
2021/09/20 05:08:39;;;;;;;14.70;5.60;;;;;;;;;;4136364;34;20209;-68
2021/09/20 05:11:05;;;;;;;13.82;5.18;;;;;;;;;;4136498;34;20659;-65
2021/09/20 05:13:31;;;;;;;12.98;5.40;;;;;;;;;;4136520;34;20127;-64
2021/09/20 05:15:57;;;;;;;16.65;4.93;;;;;;;;;;4136692;34;20619;-65
2021/09/20 05:18:23;;;;;;;13.93;4.65;;;;;;;;;;4135218;34;20543;-64
2021/09/20 05:20:50;;;;;;;13.18;5.18;;;;;;;;;;4136598;34;20123;-64
2021/09/20 05:23:16;;;;;;;18.62;5.70;;;;;;;;;;4136507;34;20559;-65
2021/09/20 05:25:42;;;;;;;11.05;5.03;;;;;;;;;;4136473;34;20175;-65
2021/09/20 05:28:09;;;;;;;18.62;4.60;;;;;;;;;;4134321;34;20146;-65
2021/09/20 05:30:35;;;;;;;10.77;4.18;;;;;;;;;;4125195;34;20091;-65
2021/09/20 05:33:01;;;;;;;14.20;4.07;;;;;;;;;;4123233;34;20518;-67
2021/09/20 05:35:27;;;;;;;13.48;4.40;;;;;;;;;;4121958;34;20191;-65
2021/09/20 05:37:53;;;;;;;10.40;3.62;;;;;;;;;;4123251;34;20127;-64
2021/09/20 05:40:19;;;;;;;7.70;3.40;;;;;;;;;;4123066;34;20126;-65
2021/09/20 05:42:45;;;;;;;8.68;3.47;;;;;;;;;;4123015;34;20204;-65
2021/09/20 05:45:11;;;;;;;6.18;3.40;;;;;;;;;;4123215;34;20465;-67
2021/09/20 05:47:37;;;;;;;13.43;3.22;;;;;;;;;;4122859;34;20135;-68
2021/09/20 05:50:04;;;;;;;7.55;3.78;;;;;;;;;;4122861;34;20123;-68
2021/09/20 05:52:30;;;;;;;9.48;3.78;;;;;;;;;;4121718;34;20119;-68
2021/09/20 05:54:56;;;;;;;13.80;3.58;;;;;;;;;;4123121;34;20123;-64
2021/09/20 05:57:22;;;;;;;11.05;3.22;;;;;;;;;;4121620;34;20235;-66
2021/09/20 05:59:48;;;;;;;16.75;4.87;;;;;;;;;;4122850;34;20108;-64
2021/09/20 06:02:15;;;;;;;7.07;3.50;;;;;;;;;;4121325;34;20132;-65
2021/09/20 06:04:43;;;;;;;10.32;4.10;;;;;;;;;;4122916;34;20638;-64
2021/09/20 06:07:09;;;;;;;16.12;5.12;;;;;;;;;;4122916;34;20119;-64
2021/09/20 06:09:35;;;;;;;13.43;6.32;;;;;;;;;;4122870;34;20179;-64
2021/09/20 06:12:04;;;;;;;20.25;5.72;;;;;;;;;;4122675;34;20118;-65
2021/09/20 06:14:30;;;;;;;8.18;4.18;;;;;;;;;;4122812;34;20115;-68
2021/09/20 06:16:56;;;;;;;13.98;4.00;;;;;;;;;;4122770;34;20119;-66
2021/09/20 06:19:22;;;;;;;17.20;6.45;;;;;;;;;;4121285;34;20122;-67
2021/09/20 06:21:49;;;;;;;9.40;3.47;;;;;;;;;;4123238;34;20508;-67
2021/09/20 06:24:16;;;;;;;17.10;4.15;;;;;;;;;;4124836;34;20131;-74
2021/09/20 06:26:42;;;;;;;19.45;4.68;;;;;;;;;;4123261;34;20139;-65
2021/09/20 06:29:10;;;;;;;12.35;5.03;;;;;;;;;;4124839;34;20135;-65
2021/09/20 06:31:37;;;;;;;9.55;4.50;;;;;;;;;;4124694;34;20187;-65
2021/09/20 06:34:03;;;;;;;8.40;4.68;;;;;;;;;;4124408;34;20124;-65
2021/09/20 06:36:29;;;;;;;14.55;4.15;;;;;;;;;;4124487;34;20118;-65
2021/09/20 06:38:56;;;;;;;15.20;3.92;;;;;;;;;;4124488;34;20179;-65
2021/09/20 06:41:23;;;;;;;5.80;2.90;;;;;;;;;;4124565;34;20108;-65
2021/09/20 06:43:49;;;;;;;12.30;2.80;;;;;;;;;;4124369;34;20119;-65
2021/09/20 06:46:15;;;;;;;9.23;3.60;;;;;;;;;;4124391;34;20134;-65
2021/09/20 06:48:42;;;;;;;15.65;3.22;;;;;;;;;;4124212;34;20116;-65
2021/09/20 06:51:08;;;;;;;7.87;3.55;;;;;;;;;;4122997;34;20112;-64
2021/09/20 06:53:34;;;;;;;6.45;3.00;;;;;;;;;;4124556;34;20100;-68
2021/09/20 06:56:00;;;;;;;7.93;3.20;;;;;;;;;;4124727;34;20217;-66
2021/09/20 06:58:26;;;;;;;7.53;2.67;;;;;;;;;;4124318;34;20166;-67
2021/09/20 07:00:51;;;;;;;5.97;2.80;;;;;;;;;;4124290;34;20632;-67
2021/09/20 07:03:17;;;;;;;2.62;2.00;;;;;;;;;;4124623;34;20129;-67
2021/09/20 07:05:43;;;;;;;4.00;2.67;;;;;;;;;;4124364;34;20560;-64
2021/09/20 07:08:09;;;;;;;6.55;2.50;;;;;;;;;;4124175;34;20104;-63
2021/09/20 07:10:35;;;;;;;2.72;2.12;;;;;;;;;;4124137;34;20120;-67
2021/09/20 07:13:01;;;;;;;6.87;2.47;;;;;;;;;;4123130;34;20130;-64
2021/09/20 07:15:27;;;;;;;7.03;2.85;;;;;;;;;;4124180;34;20261;-63
2021/09/20 07:17:53;;;;;;;6.18;2.50;;;;;;;;;;4124172;34;20138;-63
2021/09/20 07:20:19;;;;;;;4.68;2.00;;;;;;;;;;4124360;34;20495;-64
2021/09/20 07:22:45;;;;;;;2.85;2.12;;;;;;;;;;4124246;34;20131;-64
2021/09/20 07:25:12;;;;;;;6.05;2.55;;;;;;;;;;4122967;34;20134;-63
2021/09/20 07:27:38;;;;;;;4.57;2.67;;;;;;;;;;4124342;34;20123;-63
2021/09/20 07:30:05;;;;;;;4.82;2.78;;;;;;;;;;4125960;34;20119;-62
2021/09/20 07:32:31;;;;;;;10.80;2.78;;;;;;;;;;4133919;34;20151;-61
2021/09/20 07:34:57;;;;;;;4.78;3.08;;;;;;;;;;4128497;34;20104;-65
2021/09/20 07:37:23;;;;;;;6.90;3.22;;;;;;;;;;4133788;34;20100;-66
2021/09/20 07:39:49;;;;;;;5.32;3.17;;;;;;;;;;4124263;34;20136;-63
2021/09/20 07:42:15;;;;;;;8.00;2.83;;;;;;;;;;4123895;34;20153;-63
2021/09/20 07:44:41;;;;;;;5.37;2.80;;;;;;;;;;4122785;34;20115;-63
2021/09/20 07:47:06;;;;;;;6.57;3.12;;;;;;;;;;4123825;34;20115;-63
2021/09/20 07:49:33;;;;;;;8.50;3.10;;;;;;;;;;4123943;34;20124;-63
2021/09/20 07:51:59;;;;;;;4.87;2.70;;;;;;;;;;4123704;34;20147;-63
2021/09/20 07:54:25;;;;;;;4.12;2.22;;;;;;;;;;4122578;34;20562;-68
2021/09/20 07:56:51;;;;;;;7.15;3.50;;;;;;;;;;4122449;34;20115;-68
2021/09/20 07:59:17;;;;;;;17.77;3.53;;;;;;;;;;4123856;34;20477;-68
2021/09/20 08:01:43;;;;;;;3.40;2.58;;;;;;;;;;4122875;34;20198;-65
2021/09/20 08:04:10;;;;;;;5.87;2.83;;;;;;;;;;4123795;34;20139;-66
2021/09/20 08:06:36;;;;;;;4.22;2.47;;;;;;;;;;4123782;34;20632;-67
2021/09/20 08:09:02;;;;;;;6.35;2.78;;;;;;;;;;4123997;34;20135;-67
2021/09/20 08:11:29;;;;;;;3.30;2.78;;;;;;;;;;4123997;34;20099;-68
2021/09/20 08:13:55;;;;;;;16.52;3.60;;;;;;;;;;4122464;34;20148;-67
2021/09/20 08:16:21;;;;;;;4.93;2.72;;;;;;;;;;4122413;34;20103;-68
2021/09/20 08:18:47;;;;;;;8.13;2.95;;;;;;;;;;4123863;34;20119;-67
2021/09/20 08:21:13;;;;;;;7.40;2.60;;;;;;;;;;4124034;34;20092;-68
2021/09/20 08:23:39;;;;;;;8.55;3.10;;;;;;;;;;4124020;34;20203;-66
2021/09/20 08:26:05;;;;;;;20.98;4.78;;;;;;;;;;4123705;34;20150;-68
2021/09/20 08:28:32;;;;;;;5.15;3.10;;;;;;;;;;4123675;34;20224;-65
2021/09/20 08:30:58;;;;;;;8.65;3.30;;;;;;;;;;4122722;34;20100;-67
2021/09/20 08:33:24;;;;;;;8.30;2.95;;;;;;;;;;4123761;34;20215;-67
2021/09/20 08:35:50;;;;;;;6.35;2.90;;;;;;;;;;4123408;34;20119;-68
2021/09/20 08:38:16;;;;;;;11.15;3.00;;;;;;;;;;4123767;34;20151;-67
2021/09/20 08:40:41;;;;;;;8.18;3.65;;;;;;;;;;4123689;34;20132;-65
2021/09/20 08:43:07;;;;;;;4.90;2.83;;;;;;;;;;4121903;34;20155;-65
2021/09/20 08:45:33;;;;;;;4.53;3.05;;;;;;;;;;4121362;34;20539;-65
2021/09/20 08:47:59;;;;;;;5.32;3.05;;;;;;;;;;4121906;34;20115;-67
2021/09/20 08:50:30;;;;;;;3.90;3.17;;;;;;;;;;4122530;34;20193;-66
2021/09/20 08:52:56;;;;;;;13.90;3.33;;;;;;;;;;4123589;34;20131;-65
2021/09/20 08:55:23;;;;;;;5.22;3.28;;;;;;;;;;4123327;34;20216;-65
2021/09/20 08:57:49;;;;;;;4.80;3.12;;;;;;;;;;4123261;34;20135;-65
2021/09/20 09:00:15;;;;;;;5.72;3.22;;;;;;;;;;4123442;34;20116;-67
2021/09/20 09:02:41;;;;;;;5.20;3.25;;;;;;;;;;4123348;34;20129;-68
2021/09/20 09:05:29;;;;;;;5.25;3.10;;;;;;;;;;4123469;34;20128;-69
2021/09/20 09:07:56;;;;;;;3.90;3.17;;;;;;;;;;4121751;34;20217;-68
2021/09/20 09:10:23;;;;;;;4.10;2.90;;;;;;;;;;4123193;34;20132;-68
2021/09/20 09:12:50;;;;;;;4.00;2.92;;;;;;;;;;4122025;34;20238;-68
2021/09/20 09:15:17;;;;;;;6.97;3.67;;;;;;;;;;4123397;34;20127;-65
2021/09/20 09:17:44;;;;;;;8.10;3.08;;;;;;;;;;4121689;34;20194;-65
2021/09/20 09:20:15;;;;;;;6.03;3.17;;;;;;;;;;4123302;34;20120;-65
2021/09/20 09:22:58;;;;;;;5.10;3.47;;;;;;;;;;4123066;34;20188;-66
2021/09/20 09:25:34;;;;;;;5.97;3.30;;;;;;;;;;4123137;34;20139;-65
2021/09/20 09:28:02;;;;;;;;;;;;;;;;;;4122210;34;20197;-66
2021/09/20 09:30:45;;;;;;;4.93;2.87;;;;;;;;;;4122069;34;19987;-66
2021/09/20 09:33:34;;;;;;;7.62;3.08;;;;;;;;;;4121932;34;20133;-67
2021/09/20 09:36:00;;;;;;;6.20;3.00;;;;;;;;;;4121657;34;20115;-66
2021/09/20 09:38:26;;;;;;;5.20;2.58;;;;;;;;;;4121624;34;20147;-66
2021/09/20 09:41:00;;;;;;;3.62;2.60;;;;;;;;;;4123263;34;20167;-67
2021/09/20 09:43:31;;;;;;;4.80;3.60;;;;;;;;;;4121713;34;20122;-63
2021/09/20 09:45:58;;;;;;;3.30;2.72;;;;;;;;;;4123088;34;20221;-63
2021/09/20 09:48:26;;;;;;;7.72;3.35;;;;;;;;;;4123136;34;20116;-65
2021/09/20 09:50:56;;;;;;;5.72;3.10;;;;;;;;;;4122877;34;20509;-63
2021/09/20 09:53:38;;;;;;;5.85;2.85;;;;;;;;;;4123043;34;20201;-66
2021/09/20 09:56:13;;;;;;;5.37;4.05;;;;;;;;;;4122508;34;20130;-64
2021/09/20 09:58:59;;;;;;;4.68;2.72;;;;;;;;;;4122866;34;20186;-65
2021/09/20 10:01:33;;;;;;;6.90;3.97;;;;;;;;;;4131491;34;20223;-63
2021/09/20 10:04:09;;;;;;;16.50;3.45;;;;;;;;;;4129480;34;20119;-68
2021/09/20 10:06:44;;;;;;;6.37;3.37;;;;;;;;;;4136118;34;20558;-66
2021/09/20 10:09:15;;;;;;;7.18;3.45;;;;;;;;;;4124866;34;20116;-66
2021/09/20 10:11:42;;;;;;;8.57;3.65;;;;;;;;;;4130774;34;20103;-64
2021/09/20 10:14:09;;;;;;;5.28;3.30;;;;;;;;;;4136084;34;20099;-65
2021/09/20 10:16:35;;;;;;;3.37;2.50;;;;;;;;;;4128966;34;20115;-66
2021/09/20 10:19:01;;;;;;;8.38;3.10;;;;;;;;;;4122693;34;20124;-67
2021/09/20 10:21:27;;;;;;;9.80;3.30;;;;;;;;;;4122907;34;20129;-66
2021/09/20 10:23:54;;;;;;;7.28;2.60;;;;;;;;;;4122472;34;20116;-64
2021/09/20 10:26:20;;;;;;;3.90;2.75;;;;;;;;;;4122583;34;20213;-64
2021/09/20 10:28:53;;;;;;;7.12;3.28;;;;;;;;;;4122226;34;20135;-64
2021/09/20 10:31:19;;;;;;;5.32;3.20;;;;;;;;;;4121038;34;20492;-64
2021/09/20 10:33:44;;;;;;;6.40;3.60;;;;;;;;;;4126909;34;20120;-64
2021/09/20 10:36:10;;;;;;;5.22;3.20;;;;;;;;;;4135703;34;20628;-64
2021/09/20 10:38:37;;;;;;;6.80;3.53;;;;;;;;;;4134189;34;20115;-66
2021/09/20 10:41:24;;;;;;;8.07;2.85;;;;;;;;;;4135753;34;20135;-67
2021/09/20 10:44:10;;;;;;;4.55;3.15;;;;;;;;;;4134635;34;20115;-66
2021/09/20 10:46:40;;;;;;;6.45;3.17;;;;;;;;;;4136018;34;20145;-64
2021/09/20 10:49:17;;;;;;;4.97;3.45;;;;;;;;;;4135550;34;20131;-67
2021/09/20 10:51:43;;;;;;;7.15;3.90;;;;;;;;;;4135480;34;20108;-66
2021/09/20 10:54:19;;;;;;;11.40;2.78;;;;;;;;;;4134113;34;20182;-66
2021/09/20 10:56:47;;;;;;;8.98;3.03;;;;;;;;;;4135802;34;20140;-68
2021/09/20 10:59:15;;;;;;;5.10;2.80;;;;;;;;;;4135572;34;20440;-68
2021/09/20 11:01:41;;;;;;;12.15;3.47;;;;;;;;;;4135638;34;20111;-67
2021/09/20 11:04:15;;;;;;;6.12;3.10;;;;;;;;;;4134082;34;20103;-67
2021/09/20 11:06:43;;;;;;;7.30;2.72;;;;;;;;;;4134273;34;20131;-67
2021/09/20 11:09:09;;;;;;;4.28;3.00;;;;;;;;;;4136983;34;20633;-67
2021/09/20 11:11:41;;;;;;;5.35;2.67;;;;;;;;;;4137550;34;20111;-67
2021/09/20 11:14:20;;;;;;;3.97;2.80;;;;;;;;;;4137366;34;20131;-66
2021/09/20 11:16:58;;;;;;;5.82;3.10;;;;;;;;;;4136410;34;20127;-67
2021/09/20 11:19:31;;;;;;;3.10;2.20;;;;;;;;;;4137551;34;20131;-67
2021/09/20 11:22:04;;;;;;;5.90;2.75;;;;;;;;;;4137540;34;20134;-65
2021/09/20 11:24:31;;;;;;;8.48;2.87;;;;;;;;;;4137486;34;20235;-65
2021/09/20 11:26:57;;;;;;;3.60;2.58;;;;;;;;;;4135971;34;20208;-64
2021/09/20 11:29:23;;;;;;;7.70;2.95;;;;;;;;;;4136289;34;20518;-67
2021/09/20 11:31:49;;;;;;;5.97;3.10;;;;;;;;;;4136005;34;20604;-67
2021/09/20 11:34:29;;;;;;;3.75;2.47;;;;;;;;;;4137317;34;20103;-67
2021/09/20 11:37:21;;;;;;;3.20;2.10;;;;;;;;;;4133486;34;20119;-66
2021/09/20 11:39:57;;;;;;;6.45;2.72;;;;;;;;;;4123754;34;20114;-67
2021/09/20 11:42:37;;;;;;;7.18;2.90;;;;;;;;;;4124043;34;20187;-68
2021/09/20 11:45:16;;;;;;;2.33;1.90;;;;;;;;;;4123912;34;20493;-68
2021/09/20 11:47:50;;;;;;;2.17;1.65;;;;;;;;;;4124209;34;20111;-67
2021/09/20 11:50:38;;;;;;;4.10;2.12;;;;;;;;;;4122693;34;20122;-67
2021/09/20 11:53:06;;;;;;;2.80;2.05;;;;;;;;;;4122833;34;20460;-66
2021/09/20 11:55:33;;;;;;;2.62;2.20;;;;;;;;;;4122471;34;20200;-66
2021/09/20 11:58:04;;;;;;;3.40;2.30;;;;;;;;;;4122273;34;20124;-67
2021/09/20 12:00:34;;;;;;;4.25;2.67;;;;;;;;;;4122439;34;20124;-66
2021/09/20 12:03:01;;;;;;;3.30;2.50;;;;;;;;;;4133074;34;20484;-66
2021/09/20 12:05:29;;;;;;;5.05;2.55;;;;;;;;;;4124814;34;20118;-66
2021/09/20 12:08:15;;;;;;;7.57;2.75;;;;;;;;;;4135687;34;20525;-69
2021/09/20 12:10:42;;;;;;;5.60;2.70;;;;;;;;;;4137168;34;20480;-68
2021/09/20 12:13:18;;;;;;;3.08;2.53;;;;;;;;;;4129056;34;20107;-66
2021/09/20 12:15:45;;;;;;;5.43;2.08;;;;;;;;;;4135324;34;20099;-66
2021/09/20 12:18:15;;;;;;;2.60;1.90;;;;;;;;;;4136325;34;20119;-66
2021/09/20 12:20:48;;;;;;;3.58;2.47;;;;;;;;;;4136301;34;20118;-65
2021/09/20 12:23:24;;;;;;;3.20;2.10;;;;;;;;;;4129319;34;20096;-65
2021/09/20 12:25:54;;;;;;;8.43;2.58;;;;;;;;;;4133794;34;20134;-65
2021/09/20 12:28:33;;;;;;;4.65;2.28;;;;;;;;;;4136303;34;20115;-65
2021/09/20 12:31:11;;;;;;;11.27;3.20;;;;;;;;;;4135533;34;20092;-65
2021/09/20 12:33:49;;;;;;;5.68;3.00;;;;;;;;;;4136850;34;20235;-65
2021/09/20 12:36:25;;;;;;;4.12;2.50;;;;;;;;;;4136859;34;20123;-64
2021/09/20 12:39:11;;;;;;;5.68;2.60;;;;;;;;;;4135200;34;20182;-66
2021/09/20 12:41:44;;;;;;;;;;;;;;;;;;4145981;34;20452;-66
2021/09/20 12:44:12;;;;;;;5.65;2.35;;;;;;;;;;4122904;34;20112;-65
2021/09/20 12:46:39;;;;;;;7.37;2.55;;;;;;;;;;4142772;34;20115;-66
2021/09/20 12:49:06;;;;;;;3.15;2.00;;;;;;;;;;4136521;34;20127;-65
2021/09/20 12:51:41;;;;;;;8.60;3.37;;;;;;;;;;4135131;34;20124;-66
2021/09/20 12:54:19;;;;;;;9.15;2.80;;;;;;;;;;4136364;34;20119;-66
2021/09/20 12:56:45;;;;;;;5.07;2.80;;;;;;;;;;4134376;34;20608;-66
2021/09/20 12:59:14;;;;;;;5.35;2.75;;;;;;;;;;4135449;34;20142;-66
2021/09/20 13:01:58;;;;;;;4.62;2.80;;;;;;;;;;4136588;34;20572;-66
2021/09/20 13:04:33;;;;;;;4.60;2.40;;;;;;;;;;4135590;34;20207;-65
2021/09/20 13:06:59;;;;;;;5.07;2.20;;;;;;;;;;4136817;34;20494;-65
2021/09/20 13:09:25;;;;;;;6.12;2.45;;;;;;;;;;4135849;34;20537;-65
2021/09/20 13:11:51;;;;;;;2.83;2.20;;;;;;;;;;4135102;34;20091;-65
2021/09/20 13:14:24;;;;;;;3.10;2.28;;;;;;;;;;4135102;34;20223;-65
2021/09/20 13:16:50;;;;;;;3.42;2.20;;;;;;;;;;4136690;34;20473;-64
2021/09/20 13:19:16;;;;;;;3.20;2.20;;;;;;;;;;4124067;34;20124;-65
2021/09/20 13:21:42;;;;;;;3.80;2.47;;;;;;;;;;4136538;34;20456;-67
2021/09/20 13:24:08;;;;;;;6.78;2.75;;;;;;;;;;4135120;34;20103;-66
2021/09/20 13:26:36;;;;;;;5.82;2.45;;;;;;;;;;4124348;34;20122;-66
2021/09/20 13:29:03;;;;;;;7.57;3.20;;;;;;;;;;4136354;34;20110;-68
2021/09/20 13:31:31;;;;;;;4.07;2.58;;;;;;;;;;4135249;34;20456;-67
2021/09/20 13:34:01;;;;;;;4.22;2.40;;;;;;;;;;4135299;34;20190;-67
2021/09/20 13:36:29;;;;;;;3.85;2.30;;;;;;;;;;4136807;34;20092;-67
2021/09/20 13:38:56;;;;;;;4.12;2.30;;;;;;;;;;4136405;34;20190;-66
2021/09/20 13:41:22;;;;;;;6.03;2.58;;;;;;;;;;4136580;34;20512;-67
2021/09/20 13:43:49;;;;;;;5.22;2.35;;;;;;;;;;4136260;34;20133;-66
2021/09/20 13:46:19;;;;;;;10.07;3.40;;;;;;;;;;4136252;34;20175;-65
2021/09/20 13:48:46;;;;;;;5.25;2.53;;;;;;;;;;4136390;34;20123;-65
2021/09/20 13:51:12;;;;;;;9.27;3.40;;;;;;;;;;4124074;34;20111;-65
2021/09/20 13:53:38;;;;;;;14.70;3.65;;;;;;;;;;4136393;34;20227;-67
2021/09/20 13:56:04;;;;;;;9.32;3.25;;;;;;;;;;4136242;34;20932;-63
2021/09/20 13:58:30;;;;;;;5.72;3.22;;;;;;;;;;4135951;34;20112;-63
2021/09/20 14:00:57;;;;;;;5.12;2.45;;;;;;;;;;4136422;34;20147;-67
2021/09/20 14:03:23;;;;;;;3.60;2.65;;;;;;;;;;4135921;34;20115;-68
2021/09/20 14:05:50;;;;;;;6.47;3.17;;;;;;;;;;4123783;34;20119;-67
2021/09/20 14:08:18;;;;;;;3.45;2.22;;;;;;;;;;4135817;34;20110;-66
2021/09/20 14:10:44;;;;;;;6.32;2.58;;;;;;;;;;4136049;34;20115;-65
2021/09/20 14:13:10;;;;;;;5.85;3.37;;;;;;;;;;4136051;34;20104;-65
2021/09/20 14:15:36;;;;;;;6.80;2.83;;;;;;;;;;4123579;34;20131;-66
2021/09/20 14:18:02;;;;;;;4.37;2.70;;;;;;;;;;4123652;34;20125;-66
2021/09/20 14:20:29;;;;;;;8.75;2.62;;;;;;;;;;4136115;34;20123;-66
2021/09/20 14:22:58;;;;;;;7.62;2.40;;;;;;;;;;4123548;34;20150;-66
2021/09/20 14:25:25;;;;;;;7.07;2.10;;;;;;;;;;4136001;34;20123;-67
2021/09/20 14:27:52;;;;;;;4.70;2.58;;;;;;;;;;4135845;34;20114;-67
2021/09/20 14:30:18;;;;;;;10.32;3.37;;;;;;;;;;4123791;34;20103;-67
2021/09/20 14:32:45;;;;;;;6.93;2.47;;;;;;;;;;4123253;34;20098;-65
2021/09/20 14:35:11;;;;;;;3.22;2.22;;;;;;;;;;4123621;34;20112;-66
2021/09/20 14:37:37;;;;;;;11.25;6.35;;;;;;;;;;4135820;34;20123;-64
2021/09/20 14:40:18;;;;;;;3.12;1.85;;;;;;;;;;4135787;34;20207;-65
2021/09/20 14:42:45;;;;;;;9.88;2.17;;;;;;;;;;4123713;34;20125;-65
2021/09/20 14:45:13;;;;;;;4.30;2.22;;;;;;;;;;4125644;34;20155;-65
2021/09/20 14:47:39;;;;;;;5.78;2.40;;;;;;;;;;4137810;34;20208;-66
2021/09/20 14:50:06;;;;;;;2.50;2.00;;;;;;;;;;4125327;34;20122;-68
2021/09/20 14:52:32;;;;;;;5.07;2.87;;;;;;;;;;4137759;34;20119;-67
2021/09/20 14:54:58;;;;;;;3.47;2.55;;;;;;;;;;4137624;34;20122;-68
2021/09/20 14:57:24;;;;;;;4.10;2.70;;;;;;;;;;4125469;34;20120;-66
2021/09/20 14:59:50;;;;;;;6.03;2.30;;;;;;;;;;4125215;34;20581;-65
2021/09/20 15:02:17;;;;;;;4.30;2.72;;;;;;;;;;4137610;34;20107;-68
2021/09/20 15:04:44;;;;;;;8.90;2.65;;;;;;;;;;4124963;34;20131;-67
2021/09/20 15:07:10;;;;;;;4.05;2.47;;;;;;;;;;4137743;34;20122;-66